Antwerp, Ohio
Current Conditions -  °F | °C
As of 5:15 PM on Sunday 23 Nov 2014 (Local Time) from KGWB Reporting Station
Heavy Rain Heavy Rain  
Wind Chill: 11°   Ceiling: 300
Heat Index: 11°   Visibility: 4mi
Dew Point:   Wind: 7mph
Humidity: 88%   Direction: 100°E
Pressure: 29.57"   Gusts: NA
Location:  41.18°N, 84.74°W
Report Text: KGWB 232215Z AUTO 10006KT 075V135 4SM +RA BKN003 BKN014 OVC041 11/09 A2957 RMK AO2 P0006
Loading
Personal Weather Stations






























Interactive Weather Map New forecast layout! Learn more

10-Day Weather Forecast

Advertisements
Track Severe Weather on mobile